Hawthorne, New Jersey
Current Conditions -  °F | °C
As of 9:51 PM on Thursday 18 Dec 2014 (Local Time) from KTEB Reporting Station
Broken Clouds Broken Clouds  
Wind Chill: 32°   Ceiling: 5000
Heat Index: 37°   Visibility: 10mi
Dew Point: 26°   Wind: 7mph
Humidity: 65%   Direction: 280°W
Pressure: 29.98"   Gusts: NA
Location:  40.95°N, 74.15°W
Report Text: KTEB 190251Z 28006KT 10SM FEW033 BKN050 03/M03 A2998 RMK AO2 SLP151 T00281033 53003
Loading
Personal Weather Stations






























Interactive Weather Map New forecast layout! Learn more

10-Day Weather Forecast

Advertisements
Track Severe Weather on mobile